Time;durP1;ratioP1;P1;durP2;ratioP2;P2;SDS_P1;SDS_P2;PMS_P1;PMS_P2;Temp;Humidity;BMP_temperature;BMP_pressure;BME280_temperature;BME280_humidity;BME280_pressure;Samples;Min_cycle;Max_cycle;Signal;HPM_P1;HPM_P2
2022/03/22 00:01:39;;;;;;;36.07;26.07;;;7.00;73.40;;;;;;5079339;28;20485;-81
2022/03/22 00:04:05;;;;;;;33.33;25.33;;;7.20;71.70;;;;;;5079180;28;20548;-81
2022/03/22 00:06:34;;;;;;;34.87;23.80;;;7.20;71.00;;;;;;5079056;28;20454;-82
2022/03/22 00:09:01;;;;;;;36.50;25.53;;;7.40;70.10;;;;;;5078512;28;20461;-81
2022/03/22 00:11:27;;;;;;;38.50;26.53;;;7.30;70.80;;;;;;5079148;28;20454;-81
2022/03/22 00:13:54;;;;;;;34.23;23.33;;;7.30;69.10;;;;;;5078795;28;20474;-82
2022/03/22 00:16:21;;;;;;;40.13;26.33;;;7.20;68.70;;;;;;5079212;28;20482;-82
2022/03/22 00:18:48;;;;;;;34.40;23.47;;;7.30;67.90;;;;;;5078847;28;20461;-81
2022/03/22 00:21:15;;;;;;;42.77;24.40;;;7.40;67.80;;;;;;5078545;28;20475;-81
2022/03/22 00:23:43;;;;;;;34.10;23.07;;;7.30;67.20;;;;;;5078028;28;21005;-81
2022/03/22 00:26:09;;;;;;;35.90;23.60;;;7.40;66.60;;;;;;5078502;28;20450;-81
2022/03/22 00:28:37;;;;;;;33.60;23.37;;;7.30;66.30;;;;;;5078405;28;20450;-81
2022/03/22 00:31:03;;;;;;;38.90;24.47;;;7.30;65.30;;;;;;5078406;28;20561;-82
2022/03/22 00:33:30;;;;;;;31.23;22.93;;;7.30;65.30;;;;;;5078560;28;20470;-81
2022/03/22 00:35:57;;;;;;;33.43;23.47;;;7.30;64.80;;;;;;5078579;28;20820;-81
2022/03/22 00:38:24;;;;;;;33.17;23.63;;;7.40;63.70;;;;;;5077973;28;20458;-83
2022/03/22 00:40:52;;;;;;;33.10;22.93;;;7.20;63.50;;;;;;5079034;28;20485;-81
2022/03/22 00:43:19;;;;;;;37.10;24.37;;;7.10;64.60;;;;;;5078167;28;20463;-82
2022/03/22 00:45:47;;;;;;;41.10;23.30;;;7.10;64.60;;;;;;5078440;28;20454;-81
2022/03/22 00:48:14;;;;;;;33.53;24.03;;;7.00;64.60;;;;;;5078194;28;20496;-83
2022/03/22 00:50:44;;;;;;;31.60;23.67;;;6.90;64.50;;;;;;5078123;28;20447;-81
2022/03/22 00:53:13;;;;;;;34.80;23.73;;;7.00;65.70;;;;;;5078063;28;20475;-81
2022/03/22 00:55:41;;;;;;;34.40;24.87;;;6.90;66.10;;;;;;5079043;28;20481;-82
2022/03/22 00:58:09;;;;;;;36.73;25.03;;;6.90;67.30;;;;;;5078187;28;20947;-79
2022/03/22 01:00:37;;;;;;;37.23;23.67;;;6.70;67.80;;;;;;5077807;28;21012;-81
2022/03/22 01:03:05;;;;;;;34.33;23.90;;;6.50;68.40;;;;;;5077552;28;20489;-82
2022/03/22 01:05:35;;;;;;;33.77;22.57;;;6.20;69.20;;;;;;5077603;28;20462;-81
2022/03/22 01:08:05;;;;;;;34.63;24.10;;;6.10;70.30;;;;;;5078077;28;20457;-82
2022/03/22 01:10:34;;;;;;;41.03;24.90;;;5.80;73.40;;;;;;5077851;28;20522;-81
2022/03/22 01:13:01;;;;;;;39.17;25.63;;;5.60;75.40;;;;;;5077734;28;20457;-81
2022/03/22 01:15:33;;;;;;;40.53;26.87;;;5.30;77.70;;;;;;5077858;28;20455;-81
2022/03/22 01:18:01;;;;;;;41.00;28.20;;;5.20;82.30;;;;;;5078312;28;20455;-81
2022/03/22 01:20:28;;;;;;;38.27;31.03;;;5.10;83.10;;;;;;5077806;28;20482;-81
2022/03/22 01:22:56;;;;;;;46.37;34.07;;;4.90;86.40;;;;;;5077657;28;20457;-81
2022/03/22 01:25:25;;;;;;;40.50;36.43;;;4.80;88.80;;;;;;5077587;28;20461;-82
2022/03/22 01:27:52;;;;;;;42.43;38.07;;;4.70;90.80;;;;;;5078099;28;20459;-80
2022/03/22 01:30:21;;;;;;;47.77;43.20;;;4.60;91.40;;;;;;5077454;28;20655;-82
2022/03/22 01:32:51;;;;;;;46.63;41.90;;;4.50;92.20;;;;;;5077398;28;20450;-81
2022/03/22 01:35:19;;;;;;;46.97;43.00;;;4.50;92.60;;;;;;5077569;28;20474;-81
2022/03/22 01:37:47;;;;;;;59.27;53.70;;;4.40;93.30;;;;;;5078086;28;20454;-81
2022/03/22 01:40:16;;;;;;;68.57;63.17;;;4.40;93.80;;;;;;5077554;28;20457;-81
2022/03/22 01:42:42;;;;;;;98.10;91.77;;;4.20;94.70;;;;;;5077252;28;20450;-81
2022/03/22 01:45:10;;;;;;;114.30;107.50;;;4.20;95.80;;;;;;5077220;28;20475;-81
2022/03/22 01:47:38;;;;;;;119.70;112.50;;;4.10;96.10;;;;;;5078230;28;20479;-81
2022/03/22 01:50:10;;;;;;;125.37;118.03;;;4.00;97.60;;;;;;5076709;28;20973;-81
2022/03/22 01:52:40;;;;;;;132.93;125.53;;;4.20;98.10;;;;;;5077365;28;20455;-81
2022/03/22 01:55:08;;;;;;;145.23;137.00;;;4.10;98.20;;;;;;5078699;22;20865;-81
2022/03/22 01:57:35;;;;;;;152.67;144.37;;;4.30;98.30;;;;;;5057901;28;20463;-81
2022/03/22 02:00:03;;;;;;;163.80;154.80;;;4.30;98.60;;;;;;5057243;28;20839;-81
2022/03/22 02:08:02;;;;;;;42.87;38.33;;;5.00;94.90;;;;;;5055961;28;20521;-81
2022/03/22 02:10:29;;;;;;;44.43;32.50;;;5.20;92.50;;;;;;5057102;28;20459;-81
2022/03/22 02:12:56;;;;;;;45.70;30.70;;;5.30;91.40;;;;;;5055632;28;20948;-81
2022/03/22 02:15:23;;;;;;;39.37;29.60;;;5.30;90.80;;;;;;5057703;28;20985;-81
2022/03/22 02:17:51;;;;;;;45.10;28.40;;;5.30;90.40;;;;;;5057589;28;20451;-81
2022/03/22 02:20:19;;;;;;;34.90;25.93;;;5.40;89.40;;;;;;5056652;28;20829;-81
2022/03/22 02:22:53;;;;;;;41.43;29.27;;;5.50;89.40;;;;;;5058318;28;20456;-81
2022/03/22 02:25:21;;;;;;;37.07;26.77;;;5.50;88.30;;;;;;5057728;28;20479;-81
2022/03/22 02:27:52;;;;;;;37.73;25.80;;;5.60;86.90;;;;;;5057053;28;20823;-82
2022/03/22 02:30:19;;;;;;;38.23;26.13;;;5.40;86.50;;;;;;5056891;28;20547;-81
2022/03/22 02:32:50;;;;;;;40.10;28.07;;;5.40;86.00;;;;;;5056295;28;20513;-82
2022/03/22 02:35:17;;;;;;;40.37;26.77;;;5.30;86.00;;;;;;5056167;28;20997;-81
2022/03/22 02:37:44;;;;;;;41.43;27.80;;;5.20;86.60;;;;;;5057368;28;20478;-82
2022/03/22 02:40:12;;;;;;;37.40;26.10;;;5.10;88.30;;;;;;5056373;28;20452;-81
2022/03/22 02:42:50;;;;;;;36.87;27.50;;;5.00;88.30;;;;;;5056812;28;20498;-81
2022/03/22 02:45:20;;;;;;;47.20;30.83;;;5.00;89.00;;;;;;5055749;28;20503;-82
2022/03/22 02:47:52;;;;;;;38.13;27.40;;;4.90;89.20;;;;;;5056813;28;20490;-81
2022/03/22 02:50:22;;;;;;;38.67;29.60;;;4.70;89.00;;;;;;5056522;28;20547;-81
2022/03/22 02:52:50;;;;;;;42.73;29.27;;;4.80;89.60;;;;;;5055617;28;20479;-81
2022/03/22 03:10:02;;;;;;;40.10;27.07;;;4.40;90.50;;;;;;4890804;29;20992;-81
2022/03/22 03:15:46;;;;;;;40.83;27.93;;;4.60;88.60;;;;;;5082284;23;20958;-81
2022/03/22 03:18:14;;;;;;;38.73;26.33;;;4.50;87.20;;;;;;5036757;28;20460;-80
2022/03/22 03:20:41;;;;;;;42.83;27.60;;;4.50;87.90;;;;;;5036495;28;20444;-81
2022/03/22 03:23:08;;;;;;;37.43;25.67;;;4.50;87.10;;;;;;5036408;28;20456;-81
2022/03/22 03:25:37;;;;;;;36.10;25.60;;;4.50;86.80;;;;;;5055983;28;21027;-81
2022/03/22 03:28:05;;;;;;;39.97;26.37;;;4.60;87.20;;;;;;5076667;23;20442;-80
2022/03/22 03:30:31;;;;;;;40.40;29.17;;;4.60;87.60;;;;;;5034860;28;20457;-80
2022/03/22 03:32:58;;;;;;;37.17;27.67;;;4.60;87.70;;;;;;5034675;28;20448;-81
2022/03/22 03:35:26;;;;;;;39.60;26.67;;;4.50;87.20;;;;;;5035148;28;20456;-81
2022/03/22 03:37:53;;;;;;;40.03;26.47;;;4.40;87.40;;;;;;5040891;28;20455;-80
2022/03/22 03:40:20;;;;;;;42.43;29.00;;;4.40;88.10;;;;;;5044675;28;20957;-80
2022/03/22 03:42:46;;;;;;;42.67;27.13;;;4.30;88.00;;;;;;5044310;28;20476;-81
2022/03/22 03:47:59;;;;;;;38.90;25.70;;;4.40;87.20;;;;;;5037405;28;20443;-81
2022/03/22 03:50:27;;;;;;;36.23;27.83;;;4.60;87.50;;;;;;5034965;28;20468;-81
2022/03/22 03:52:54;;;;;;;34.60;25.23;;;4.30;85.90;;;;;;5034625;28;20944;-80
2022/03/22 03:55:21;;;;;;;34.23;24.20;;;4.30;86.10;;;;;;5034990;28;20479;-81
2022/03/22 03:57:49;;;;;;;32.97;25.10;;;4.30;85.30;;;;;;5035454;28;20459;-81
2022/03/22 04:00:16;;;;;;;34.07;24.00;;;4.30;85.30;;;;;;5034409;28;20458;-81
2022/03/22 04:02:49;;;;;;;40.97;26.60;;;4.20;85.20;;;;;;5036805;28;20483;-81
2022/03/22 04:05:16;;;;;;;41.80;28.13;;;4.00;87.70;;;;;;5034912;28;20448;-81
2022/03/22 04:07:44;;;;;;;39.07;29.53;;;4.00;90.40;;;;;;5034382;28;20854;-81
2022/03/22 04:10:11;;;;;;;38.27;30.70;;;4.00;90.80;;;;;;5034289;28;20455;-81
2022/03/22 04:12:41;;;;;;;40.30;28.40;;;4.00;90.50;;;;;;5034702;28;20455;-81
2022/03/22 04:15:09;;;;;;;42.00;27.80;;;4.20;89.00;;;;;;5034824;28;20538;-81
2022/03/22 04:17:36;;;;;;;42.90;25.80;;;4.20;87.00;;;;;;5034684;28;20452;-81
2022/03/22 04:20:03;;;;;;;34.57;25.23;;;4.30;85.60;;;;;;5034979;28;20472;-81
2022/03/22 04:22:30;;;;;;;39.57;25.23;;;4.30;83.70;;;;;;5035099;28;20814;-81
2022/03/22 04:24:58;;;;;;;39.87;25.50;;;4.40;82.30;;;;;;5035222;28;20503;-79
2022/03/22 04:32:54;;;;;;;33.87;24.47;;;4.20;83.00;;;;;;5042008;28;20431;-79
2022/03/22 04:35:24;;;;;;;38.20;25.80;;;4.10;84.00;;;;;;5037568;28;20953;-81
2022/03/22 04:37:52;;;;;;;38.27;26.27;;;4.00;86.50;;;;;;5038370;28;20808;-81
2022/03/22 04:40:21;;;;;;;35.80;26.07;;;3.80;87.30;;;;;;5038539;28;20463;-80
2022/03/22 04:42:49;;;;;;;37.47;26.67;;;3.80;87.60;;;;;;5039196;28;20484;-81
2022/03/22 04:45:17;;;;;;;37.50;28.70;;;3.80;86.90;;;;;;5039337;28;20492;-80
2022/03/22 04:47:45;;;;;;;36.20;24.80;;;3.80;86.90;;;;;;5046528;28;20460;-80
2022/03/22 04:50:13;;;;;;;39.07;26.30;;;3.70;86.50;;;;;;5046477;28;20460;-80
2022/03/22 04:58:10;;;;;;;35.33;23.30;;;3.50;86.90;;;;;;5037108;28;20462;-81
2022/03/22 05:00:37;;;;;;;34.57;24.90;;;3.70;86.30;;;;;;5037167;28;20448;-80
2022/03/22 05:03:05;;;;;;;37.20;24.37;;;3.70;85.80;;;;;;5036939;28;20476;-80
2022/03/22 05:08:16;;;;;;;35.87;23.83;;;3.80;84.40;;;;;;5036390;28;21039;-82
2022/03/22 05:10:44;;;;;;;39.67;26.07;;;3.90;83.30;;;;;;5037339;28;20941;-81
2022/03/22 05:13:11;;;;;;;32.57;23.10;;;3.90;82.30;;;;;;5037135;28;20452;-80
2022/03/22 05:15:38;;;;;;;33.77;22.83;;;3.90;82.80;;;;;;5036619;28;20467;-80
2022/03/22 05:18:05;;;;;;;31.37;22.50;;;3.90;82.80;;;;;;5036940;28;20469;-78
2022/03/22 05:20:32;;;;;;;33.10;22.50;;;3.80;82.40;;;;;;5036670;28;20506;-80
2022/03/22 05:22:59;;;;;;;39.87;24.67;;;4.10;82.00;;;;;;5036986;28;20486;-83
2022/03/22 05:25:31;;;;;;;33.77;23.87;;;4.00;81.60;;;;;;5037118;28;20457;-81
2022/03/22 05:28:00;;;;;;;33.93;23.20;;;4.10;82.00;;;;;;5036766;28;20467;-81
2022/03/22 05:30:27;;;;;;;38.63;25.50;;;4.10;81.80;;;;;;5036786;28;20457;-80
2022/03/22 05:32:54;;;;;;;31.43;22.23;;;4.10;81.50;;;;;;5037015;28;20821;-81
2022/03/22 05:35:21;;;;;;;36.50;24.60;;;3.90;81.80;;;;;;5036896;28;20457;-81
2022/03/22 05:37:47;;;;;;;36.10;26.03;;;3.90;82.20;;;;;;5036756;28;20973;-81
2022/03/22 05:40:16;;;;;;;32.93;23.63;;;3.90;82.90;;;;;;5036393;28;20462;-81
2022/03/22 05:42:42;;;;;;;32.03;23.90;;;3.90;82.00;;;;;;5037060;28;20924;-81
2022/03/22 05:45:12;;;;;;;32.47;22.90;;;4.00;81.90;;;;;;5037027;28;20529;-81
2022/03/22 05:47:39;;;;;;;30.83;21.90;;;4.00;81.60;;;;;;5036550;28;20452;-81
2022/03/22 05:50:07;;;;;;;40.03;24.77;;;4.00;82.50;;;;;;5035930;28;20476;-80
2022/03/22 05:52:35;;;;;;;34.30;24.27;;;4.00;81.70;;;;;;5036091;28;20455;-81
2022/03/22 05:55:02;;;;;;;32.50;22.13;;;4.10;81.40;;;;;;5035723;28;20455;-79
2022/03/22 05:57:29;;;;;;;34.87;22.10;;;4.30;78.60;;;;;;5035903;28;20460;-82
2022/03/22 05:59:56;;;;;;;37.90;23.00;;;4.50;75.30;;;;;;5035278;28;20478;-80
2022/03/22 06:02:24;;;;;;;30.63;21.90;;;4.80;72.10;;;;;;5034054;28;20475;-80
2022/03/22 06:04:51;;;;;;;34.90;21.60;;;5.00;69.90;;;;;;5034870;28;20456;-80
2022/03/22 06:07:19;;;;;;;31.07;22.33;;;5.00;67.20;;;;;;5034487;28;20983;-81
2022/03/22 06:09:46;;;;;;;32.93;21.50;;;5.20;65.40;;;;;;5034593;28;20584;-80
2022/03/22 06:12:14;;;;;;;29.17;20.63;;;5.30;66.00;;;;;;5036010;28;20463;-81
2022/03/22 06:14:41;;;;;;;33.60;22.37;;;5.50;65.50;;;;;;5035148;28;20459;-80
2022/03/22 06:17:08;;;;;;;34.90;21.40;;;5.40;66.10;;;;;;5035834;28;20452;-80
2022/03/22 06:19:37;;;;;;;37.20;21.43;;;5.40;65.30;;;;;;5035406;28;20476;-80
2022/03/22 06:22:04;;;;;;;30.97;20.17;;;5.50;62.30;;;;;;5035084;28;20534;-80
2022/03/22 06:24:31;;;;;;;28.80;20.10;;;5.70;61.30;;;;;;5038127;28;20455;-81
2022/03/22 06:26:58;;;;;;;30.67;19.43;;;5.80;58.40;;;;;;5040333;28;20534;-83
2022/03/22 06:29:24;;;;;;;43.67;20.47;;;6.10;58.60;;;;;;5038531;28;20491;-83
2022/03/22 06:31:52;;;;;;;30.50;18.00;;;6.00;58.50;;;;;;5036521;28;20463;-83
2022/03/22 06:34:19;;;;;;;32.90;21.70;;;6.20;57.40;;;;;;5035070;28;20452;-84
2022/03/22 06:36:47;;;;;;;29.07;19.70;;;6.10;57.60;;;;;;5037253;28;20448;-81
2022/03/22 06:39:14;;;;;;;29.80;20.50;;;6.20;58.40;;;;;;5035362;28;20476;-81
2022/03/22 06:41:40;;;;;;;30.67;18.80;;;6.30;58.80;;;;;;5034702;28;20456;-81
2022/03/22 06:44:07;;;;;;;36.10;21.23;;;6.30;58.80;;;;;;5036461;28;20452;-81
2022/03/22 06:46:34;;;;;;;29.97;19.93;;;6.40;57.70;;;;;;5035590;28;20817;-81
2022/03/22 06:49:01;;;;;;;31.10;21.07;;;6.40;58.40;;;;;;5034322;28;20479;-81
2022/03/22 06:51:27;;;;;;;28.97;19.50;;;6.40;58.80;;;;;;5035184;28;20456;-81
2022/03/22 06:53:56;;;;;;;28.50;20.80;;;6.40;58.80;;;;;;5032662;28;20448;-82
2022/03/22 06:56:22;;;;;;;29.97;21.03;;;6.40;58.90;;;;;;5035238;28;20459;-82
2022/03/22 06:58:50;;;;;;;32.07;20.23;;;6.40;58.80;;;;;;5034145;28;20562;-80
2022/03/22 07:01:16;;;;;;;31.23;19.70;;;6.60;58.90;;;;;;5033910;28;20554;-80
2022/03/22 07:03:43;;;;;;;29.83;21.63;;;6.70;58.80;;;;;;5034337;28;20479;-81
2022/03/22 07:06:10;;;;;;;28.37;19.57;;;6.90;59.90;;;;;;5033581;28;20483;-79
2022/03/22 07:08:37;;;;;;;35.77;23.00;;;6.70;62.00;;;;;;5033993;28;20835;-81
2022/03/22 07:13:49;;;;;;;25.77;19.77;;;7.20;59.50;;;;;;5034431;28;20490;-81
2022/03/22 07:16:16;;;;;;;28.57;20.57;;;7.20;59.60;;;;;;5034618;28;20460;-80
2022/03/22 07:18:42;;;;;;;26.20;19.63;;;7.40;59.70;;;;;;5034294;28;20472;-81
2022/03/22 07:21:09;;;;;;;30.97;19.70;;;7.60;57.40;;;;;;5034392;28;20467;-79
2022/03/22 07:23:36;;;;;;;31.37;19.97;;;7.70;56.70;;;;;;5034080;28;20480;-81
2022/03/22 07:26:04;;;;;;;30.90;19.63;;;7.80;55.70;;;;;;5034625;28;20461;-81
2022/03/22 07:28:31;;;;;;;27.20;18.30;;;8.10;49.30;;;;;;5033032;28;20484;-81
2022/03/22 07:30:58;;;;;;;24.23;18.70;;;8.10;48.80;;;;;;5033688;28;20476;-79
2022/03/22 07:33:25;;;;;;;32.87;20.33;;;8.30;47.80;;;;;;5034083;28;20452;-81
2022/03/22 07:35:52;;;;;;;28.97;19.80;;;8.40;48.60;;;;;;5034145;28;20479;-81
2022/03/22 07:38:19;;;;;;;24.97;17.67;;;8.60;44.30;;;;;;5033727;28;20472;-81
2022/03/22 07:40:45;;;;;;;26.57;18.93;;;8.70;42.30;;;;;;5034106;28;21077;-81
2022/03/22 07:43:13;;;;;;;26.57;17.43;;;8.90;40.60;;;;;;5034436;28;20483;-81
2022/03/22 07:45:40;;;;;;;25.23;17.93;;;9.10;39.80;;;;;;5034638;28;20479;-81
2022/03/22 07:48:07;;;;;;;23.17;16.97;;;9.10;39.40;;;;;;5033814;28;20479;-80
2022/03/22 07:53:32;;;;;;;24.53;17.97;;;9.40;37.30;;;;;;4992316;28;20447;-84
2022/03/22 07:55:59;;;;;;;28.00;18.70;;;9.40;35.50;;;;;;4994602;28;21081;-83
2022/03/22 07:58:27;;;;;;;33.47;20.70;;;9.60;33.70;;;;;;5011688;28;21052;-82
2022/03/22 08:00:54;;;;;;;23.80;17.02;;;9.60;30.80;;;;;;5033607;28;20457;-81
2022/03/22 08:03:23;;;;;;;30.77;16.00;;;9.90;31.50;;;;;;5032772;28;20248;-80
2022/03/22 08:05:50;;;;;;;22.70;16.93;;;9.90;30.00;;;;;;5032474;28;20452;-80
2022/03/22 08:08:17;;;;;;;37.30;17.60;;;10.20;30.30;;;;;;5032392;28;20480;-78
2022/03/22 08:10:45;;;;;;;24.07;17.40;;;10.20;30.50;;;;;;5031098;28;20460;-78
2022/03/22 08:13:12;;;;;;;23.77;18.40;;;10.40;28.20;;;;;;5037213;28;20484;-81
2022/03/22 08:15:40;;;;;;;28.55;20.00;;;10.40;28.80;;;;;;5037164;28;20484;-81
2022/03/22 08:18:10;;;;;;;27.57;16.60;;;10.70;27.30;;;;;;5037566;28;20303;-79
2022/03/22 08:20:37;;;;;;;28.60;17.70;;;10.80;25.60;;;;;;5038143;28;20463;-81
2022/03/22 08:23:04;;;;;;;33.13;17.40;;;10.90;23.50;;;;;;5037872;28;20483;-81
2022/03/22 08:25:32;;;;;;;25.67;17.20;;;11.10;22.90;;;;;;5038234;28;21063;-81
2022/03/22 08:28:01;;;;;;;24.50;18.70;;;11.40;22.20;;;;;;5037958;28;20595;-81
2022/03/22 08:30:29;;;;;;;26.67;16.90;;;11.70;21.00;;;;;;5037454;28;20456;-81
2022/03/22 08:33:00;;;;;;;24.03;17.57;;;12.00;20.30;;;;;;5037672;28;20444;-81
2022/03/22 08:35:28;;;;;;;25.37;17.20;;;12.40;20.10;;;;;;5037321;28;20456;-81
2022/03/22 08:37:55;;;;;;;24.27;17.00;;;12.60;19.20;;;;;;5037415;28;20832;-81
2022/03/22 08:40:23;;;;;;;24.40;17.23;;;12.90;17.60;;;;;;5037601;28;20452;-82
2022/03/22 08:42:52;;;;;;;24.17;17.27;;;13.30;18.70;;;;;;5037173;28;20499;-81
2022/03/22 08:45:22;;;;;;;29.97;17.27;;;13.50;16.40;;;;;;5037562;28;20452;-81
2022/03/22 08:47:49;;;;;;;26.23;17.00;;;13.80;15.10;;;;;;5037608;28;20457;-83
2022/03/22 08:50:19;;;;;;;24.07;17.93;;;14.20;11.70;;;;;;5037306;28;20452;-81
2022/03/22 08:52:47;;;;;;;27.00;17.43;;;14.30;13.20;;;;;;5037163;28;20450;-81
2022/03/22 08:55:16;;;;;;;28.57;17.47;;;14.30;7.80;;;;;;5037305;28;20523;-81
2022/03/22 08:57:43;;;;;;;26.67;19.23;;;14.70;8.10;;;;;;5037567;28;20448;-81
2022/03/22 09:00:13;;;;;;;26.20;17.43;;;15.20;8.20;;;;;;5036913;28;20501;-82
2022/03/22 09:02:41;;;;;;;25.03;18.47;;;15.10;3.10;;;;;;5036985;28;20510;-81
2022/03/22 09:07:57;;;;;;;25.27;17.33;;;15.30;2.90;;;;;;5036562;28;20516;-82
2022/03/22 09:10:25;;;;;;;24.27;17.63;;;15.40;1.50;;;;;;5036231;28;20456;-81
2022/03/22 09:12:53;;;;;;;22.70;17.50;;;15.70;1.40;;;;;;5036447;28;20454;-81
2022/03/22 09:15:21;;;;;;;20.90;17.93;;;16.00;1.70;;;;;;5037356;28;20454;-81
2022/03/22 09:17:48;;;;;;;22.97;15.87;;;16.20;2.40;;;;;;5036673;28;20963;-82
2022/03/22 09:20:15;;;;;;;31.43;19.30;;;16.40;1.00;;;;;;5036702;28;20451;-83
2022/03/22 09:22:42;;;;;;;21.60;18.63;;;16.60;1.00;;;;;;5036437;28;20508;-82
2022/03/22 09:25:11;;;;;;;23.27;17.43;;;16.90;1.00;;;;;;5036499;28;20551;-82
2022/03/22 09:27:38;;;;;;;21.33;17.90;;;17.30;1.00;;;;;;5037001;28;20497;-82
2022/03/22 09:30:08;;;;;;;22.17;17.83;;;17.30;1.00;;;;;;5058882;23;20561;-82
2022/03/22 09:32:35;;;;;;;24.10;17.77;;;17.40;1.00;;;;;;5034163;28;20456;-82
2022/03/22 09:35:06;;;;;;;23.53;17.13;;;17.40;1.00;;;;;;5034552;28;20458;-84
2022/03/22 09:37:33;;;;;;;21.90;16.87;;;17.70;1.00;;;;;;5034706;28;20872;-82
2022/03/22 09:40:00;;;;;;;20.90;17.17;;;18.00;1.00;;;;;;5034092;28;20479;-82
2022/03/22 09:42:28;;;;;;;19.90;17.00;;;18.60;1.00;;;;;;5033700;28;20454;-82
2022/03/22 09:44:55;;;;;;;19.13;17.10;;;18.30;1.00;;;;;;5031313;28;20497;-81
2022/03/22 09:47:22;;;;;;;22.57;17.70;;;18.60;1.00;;;;;;5035593;28;20459;-81
2022/03/22 09:49:49;;;;;;;27.93;17.00;;;18.30;1.00;;;;;;5034960;28;20481;-81
2022/03/22 09:52:17;;;;;;;22.23;17.13;;;18.60;1.00;;;;;;5035634;28;20448;-81
2022/03/22 09:54:44;;;;;;;21.60;17.63;;;19.20;1.00;;;;;;5034172;28;20457;-83
2022/03/22 09:57:10;;;;;;;21.87;17.20;;;18.80;1.00;;;;;;5033642;28;20454;-82
2022/03/22 09:59:39;;;;;;;23.20;17.13;;;19.40;1.00;;;;;;5032685;28;20478;-82
2022/03/22 10:02:06;;;;;;;20.57;16.07;;;19.80;1.00;;;;;;5034330;28;20458;-83
2022/03/22 10:04:38;;;;;;;22.13;18.40;;;19.80;1.00;;;;;;5033794;28;20479;-82
2022/03/22 10:07:06;;;;;;;23.73;17.20;;;20.00;1.00;;;;;;5033162;28;20454;-82
2022/03/22 10:09:36;;;;;;;19.87;16.90;;;20.20;1.00;;;;;;5033108;28;20487;-82
2022/03/22 10:12:04;;;;;;;19.30;16.90;;;20.90;1.00;;;;;;5033964;28;20559;-80
2022/03/22 10:14:36;;;;;;;19.87;16.80;;;21.00;1.00;;;;;;5035334;28;20494;-81
2022/03/22 10:17:12;;;;;;;27.87;17.53;;;21.10;1.00;;;;;;5035168;28;20972;-80
2022/03/22 10:19:45;;;;;;;21.50;17.47;;;21.50;1.00;;;;;;5034017;28;20521;-81
2022/03/22 10:22:12;;;;;;;23.40;17.00;;;21.20;1.00;;;;;;5034862;28;20913;-81
2022/03/22 10:24:44;;;;;;;17.97;15.70;;;21.10;1.00;;;;;;5035067;28;20851;-81
2022/03/22 10:27:23;;;;;;;17.80;15.97;;;21.40;1.00;;;;;;5034793;28;20510;-81
2022/03/22 10:29:49;;;;;;;23.20;18.03;;;22.10;1.00;;;;;;5033804;28;20861;-80
2022/03/22 10:32:19;;;;;;;22.50;16.63;;;21.80;1.00;;;;;;5033893;28;20952;-81
2022/03/22 10:34:46;;;;;;;20.20;16.50;;;21.70;1.00;;;;;;5033162;28;20452;-81
2022/03/22 10:37:12;;;;;;;21.23;16.77;;;21.60;1.00;;;;;;5034193;28;21087;-80
2022/03/22 10:39:42;;;;;;;17.30;15.17;;;21.70;1.00;;;;;;5034010;28;20479;-81
2022/03/22 10:42:10;;;;;;;19.13;16.23;;;22.10;1.00;;;;;;5033994;28;20459;-80
2022/03/22 10:44:38;;;;;;;20.47;14.70;;;22.20;1.00;;;;;;5033088;28;20855;-80
2022/03/22 10:47:07;;;;;;;20.80;17.87;;;22.00;1.00;;;;;;5034087;28;20479;-81
2022/03/22 10:49:36;;;;;;;18.77;15.13;;;22.30;1.00;;;;;;5032966;28;20516;-80
2022/03/22 10:52:03;;;;;;;16.57;13.50;;;22.20;1.00;;;;;;5033863;28;20798;-80
2022/03/22 10:54:29;;;;;;;19.90;17.43;;;22.10;1.00;;;;;;5033371;28;20457;-80
2022/03/22 10:56:57;;;;;;;18.30;16.40;;;22.50;1.00;;;;;;5033198;28;20846;-80
2022/03/22 10:59:26;;;;;;;21.33;15.93;;;22.70;1.00;;;;;;5032789;28;20482;-80
2022/03/22 11:01:55;;;;;;;19.47;15.33;;;23.00;1.00;;;;;;5034065;28;20456;-80
2022/03/22 11:04:23;;;;;;;20.33;16.70;;;22.80;1.00;;;;;;5033509;28;20447;-80
2022/03/22 11:06:51;;;;;;;18.90;16.20;;;22.90;1.00;;;;;;5034382;28;20459;-81
2022/03/22 11:09:20;;;;;;;19.97;14.90;;;24.00;1.00;;;;;;5033517;28;20471;-81
2022/03/22 11:11:52;;;;;;;17.40;14.13;;;23.40;1.00;;;;;;5033216;28;20539;-81
2022/03/22 11:14:27;;;;;;;17.57;14.40;;;23.30;1.00;;;;;;5035476;28;20476;-81
2022/03/22 11:16:55;;;;;;;21.60;14.90;;;23.50;1.00;;;;;;5036963;28;20542;-84
2022/03/22 11:19:23;;;;;;;22.43;15.93;;;23.50;1.00;;;;;;5041271;28;20491;-85
2022/03/22 11:21:51;;;;;;;18.47;14.60;;;23.40;1.00;;;;;;5037018;28;20513;-83
2022/03/22 11:24:26;;;;;;;19.27;14.53;;;23.10;1.00;;;;;;5037726;28;20459;-85
2022/03/22 11:26:56;;;;;;;23.13;14.97;;;23.70;1.00;;;;;;5035922;28;20830;-81
2022/03/22 11:29:25;;;;;;;17.27;14.00;;;23.30;1.00;;;;;;5033929;28;20487;-84
2022/03/22 11:34:35;;;;;;;21.50;15.90;;;24.00;1.00;;;;;;5034580;28;20476;-83
2022/03/22 11:37:03;;;;;;;26.20;16.60;;;25.00;1.00;;;;;;5036527;28;20825;-84
2022/03/22 11:42:18;;;;;;;20.73;14.10;;;25.40;1.00;;;;;;5034520;28;20467;-84
2022/03/22 11:44:56;;;;;;;18.73;14.33;;;24.50;1.00;;;;;;5037101;28;20458;-84
2022/03/22 11:47:23;;;;;;;18.27;14.33;;;25.20;1.00;;;;;;5040929;28;20436;-84
2022/03/22 11:49:52;;;;;;;16.20;13.90;;;26.30;1.00;;;;;;5040736;28;20534;-84
2022/03/22 11:52:22;;;;;;;29.33;18.23;;;26.60;1.00;;;;;;5040234;28;20466;-84
2022/03/22 11:54:57;;;;;;;21.17;15.13;;;26.40;1.00;;;;;;5041279;28;20525;-83
2022/03/22 11:57:24;;;;;;;29.23;18.03;;;26.50;1.00;;;;;;5039296;28;20447;-82
2022/03/22 11:59:53;;;;;;;20.20;14.43;;;26.60;1.00;;;;;;5039508;28;20472;-84
2022/03/22 12:02:22;;;;;;;17.27;13.33;;;26.80;1.00;;;;;;5042015;28;20514;-84
2022/03/22 12:04:51;;;;;;;18.57;14.53;;;27.20;1.00;;;;;;5041834;28;20426;-84
2022/03/22 12:07:27;;;;;;;17.53;15.07;;;27.40;1.00;;;;;;5039802;28;20471;-83
2022/03/22 12:09:55;;;;;;;21.13;13.90;;;27.30;1.00;;;;;;5041106;28;20475;-84
2022/03/22 12:12:21;;;;;;;19.10;14.10;;;26.90;1.00;;;;;;5040744;28;20435;-85
2022/03/22 12:14:48;;;;;;;50.40;21.10;;;27.00;1.00;;;;;;5042023;28;20483;-83
2022/03/22 12:17:17;;;;;;;23.93;15.83;;;27.50;1.00;;;;;;5047665;28;20547;-86
2022/03/22 12:19:44;;;;;;;25.40;16.83;;;27.20;1.00;;;;;;5046662;28;20875;-85
2022/03/22 12:22:11;;;;;;;243.50;72.07;;;26.40;1.00;;;;;;5045977;28;20474;-84
2022/03/22 12:24:39;;;;;;;22.53;16.43;;;25.40;1.00;;;;;;5046599;28;20444;-86
2022/03/22 12:27:08;;;;;;;16.10;13.83;;;26.30;1.00;;;;;;5048598;28;20456;-85
2022/03/22 12:29:40;;;;;;;296.37;119.37;;;26.60;1.00;;;;;;5044892;28;21024;-84
2022/03/22 12:32:13;;;;;;;19.80;15.00;;;26.10;1.00;;;;;;5043974;28;20466;-85
2022/03/22 12:34:41;;;;;;;17.70;14.87;;;25.40;1.00;;;;;;5042065;28;20476;-85
2022/03/22 12:37:08;;;;;;;20.83;13.73;;;26.10;1.00;;;;;;5041523;28;20456;-85
2022/03/22 12:39:37;;;;;;;15.97;13.10;;;25.90;1.00;;;;;;5039743;28;20472;-83
2022/03/22 12:42:06;;;;;;;15.80;12.63;;;25.70;1.00;;;;;;5039075;28;20452;-85
2022/03/22 12:44:34;;;;;;;18.53;14.23;;;25.60;1.00;;;;;;5037715;28;20448;-83
2022/03/22 12:47:01;;;;;;;19.90;13.50;;;26.00;1.00;;;;;;5042845;28;20452;-83
2022/03/22 12:49:28;;;;;;;17.90;12.60;;;25.40;1.00;;;;;;5094998;23;20500;-85
2022/03/22 12:51:55;;;;;;;17.33;12.67;;;26.30;1.00;;;;;;5043879;28;20463;-84
2022/03/22 12:54:23;;;;;;;16.70;12.50;;;26.30;1.00;;;;;;5042290;28;20479;-85
2022/03/22 12:56:51;;;;;;;15.07;12.43;;;25.30;1.00;;;;;;5042564;28;20455;-85
2022/03/22 12:59:23;;;;;;;17.27;13.03;;;24.80;1.00;;;;;;5042708;28;20478;-85
2022/03/22 13:01:57;;;;;;;17.03;13.30;;;25.20;1.00;;;;;;5043156;28;20968;-85
2022/03/22 13:04:26;;;;;;;23.20;13.10;;;26.30;1.00;;;;;;5043682;28;20547;-85
2022/03/22 13:06:57;;;;;;;14.80;11.70;;;27.60;1.00;;;;;;5041607;28;20491;-84
2022/03/22 13:12:11;;;;;;;15.60;11.93;;;27.80;1.00;;;;;;5037630;28;20519;-84
2022/03/22 13:17:23;;;;;;;16.10;12.53;;;26.60;1.00;;;;;;5036958;28;20591;-84
2022/03/22 13:19:52;;;;;;;14.93;12.00;;;26.60;1.00;;;;;;5036499;28;20478;-86
2022/03/22 13:22:19;;;;;;;18.43;12.40;;;26.90;1.00;;;;;;5032744;28;20459;-87
2022/03/22 13:24:46;;;;;;;17.97;12.27;;;28.00;1.00;;;;;;5033416;28;20483;-87
2022/03/22 13:27:13;;;;;;;16.90;11.97;;;28.00;1.00;;;;;;5033499;28;20551;-87
2022/03/22 13:29:43;;;;;;;15.63;11.47;;;27.90;1.00;;;;;;5033333;28;21158;-87
2022/03/22 13:32:12;;;;;;;17.60;11.10;;;27.90;1.00;;;;;;5032930;28;20793;-87
2022/03/22 13:34:42;;;;;;;17.10;10.83;;;28.00;1.00;;;;;;5034191;28;20568;-86
2022/03/22 13:37:09;;;;;;;14.10;10.20;;;28.20;1.00;;;;;;5035982;28;20460;-82
2022/03/22 13:39:37;;;;;;;17.73;10.60;;;26.80;1.00;;;;;;5036619;28;20483;-83